createdAt,value
2022-10-19T20:42:53.719Z,100280.28
2022-10-19T20:46:15.889Z,100278.00
2022-10-19T20:48:18.334Z,100282.50
2022-10-19T20:50:21.990Z,100272.78
2022-10-19T20:52:24.550Z,100269.25
2022-10-19T20:54:26.974Z,100251.72
2022-10-19T20:56:31.301Z,100247.53
2022-10-19T20:58:34.552Z,100254.38
2022-10-19T21:00:37.169Z,100256.56
2022-10-19T21:02:41.159Z,100259.53
2022-10-19T21:04:44.052Z,100254.31
2022-10-19T21:06:48.989Z,100241.75
2022-10-19T21:08:52.223Z,100247.41
2022-10-19T21:10:54.908Z,100240.13
2022-10-19T21:12:57.514Z,100239.78
2022-10-19T21:15:00.100Z,100240.16
2022-10-19T21:17:02.739Z,100245.38
2022-10-19T21:19:09.313Z,100246.72
2022-10-19T21:21:14.770Z,100245.28
2022-10-19T21:23:17.357Z,100243.00
2022-10-19T21:25:19.963Z,100245.19
2022-10-19T21:27:22.646Z,100235.81
2022-10-19T21:29:25.254Z,100243.69
2022-10-19T21:31:28.678Z,100248.41
2022-10-19T21:33:31.302Z,100248.13
2022-10-19T21:35:36.880Z,100246.69
2022-10-19T21:37:39.512Z,100247.69
2022-10-19T21:39:42.688Z,100249.69
2022-10-19T21:41:45.392Z,100240.19
2022-10-19T21:43:48.285Z,100231.31
2022-10-19T21:45:50.943Z,100225.94
2022-10-19T21:47:53.556Z,100232.19
2022-10-19T21:49:56.189Z,100223.88
2022-10-19T21:52:04.374Z,100226.75
2022-10-19T21:54:08.659Z,100214.44
2022-10-19T21:56:11.327Z,100215.34
2022-10-19T21:58:14.690Z,100212.84
2022-10-19T22:00:17.302Z,100211.38
2022-10-19T22:02:19.931Z,100206.78
2022-10-19T22:04:22.924Z,100211.19
2022-10-19T22:06:25.649Z,100201.41
2022-10-19T22:08:29.693Z,100195.00
2022-10-19T22:10:32.456Z,100187.19
2022-10-19T22:12:35.287Z,100195.88
2022-10-19T22:14:38.057Z,100185.84
2022-10-19T22:16:41.577Z,100183.94
2022-10-19T22:18:44.898Z,100178.06
2022-10-19T22:20:47.557Z,100176.78
2022-10-19T22:22:52.742Z,100166.13
2022-10-19T22:24:58.880Z,100166.56
2022-10-19T22:27:01.489Z,100162.66
2022-10-19T22:29:05.944Z,100162.59
2022-10-19T22:31:09.014Z,100158.50
2022-10-19T22:33:11.668Z,100154.06
2022-10-19T22:35:14.286Z,100159.97
2022-10-19T22:37:16.937Z,100149.47
2022-10-19T22:39:19.540Z,100150.28
2022-10-19T22:41:23.556Z,100150.72
2022-10-19T22:43:26.204Z,100155.16
2022-10-19T22:45:28.848Z,100157.34
2022-10-19T22:47:31.462Z,100162.22
2022-10-19T22:49:34.075Z,100153.59
2022-10-19T22:51:36.751Z,100157.03
2022-10-19T22:53:39.370Z,100151.41
2022-10-19T22:55:42.067Z,100154.59
2022-10-19T22:57:46.072Z,100150.53
2022-10-19T22:59:48.664Z,100140.84
2022-10-19T23:01:51.355Z,100134.06
2022-10-19T23:03:54.011Z,100126.84
2022-10-19T23:05:56.685Z,100122.94
2022-10-19T23:07:59.265Z,100131.34
2022-10-19T23:10:02.407Z,100127.63
2022-10-19T23:12:05.460Z,100120.56
2022-10-19T23:14:09.612Z,100119.31
2022-10-19T23:16:12.245Z,100120.31
2022-10-19T23:18:15.013Z,100115.75
2022-10-19T23:20:17.715Z,100118.50
2022-10-19T23:22:20.995Z,100098.63
2022-10-19T23:24:23.731Z,100101.47
2022-10-19T23:26:32.372Z,100095.13
2022-10-19T23:28:36.686Z,100104.38
2022-10-19T23:30:40.621Z,100106.34
2022-10-19T23:32:43.224Z,100104.31
2022-10-19T23:34:48.291Z,100106.84
2022-10-19T23:36:51.263Z,100104.59
2022-10-19T23:38:55.592Z,100091.75
2022-10-19T23:40:58.197Z,100094.13
2022-10-19T23:43:00.772Z,100090.66
2022-10-19T23:45:03.409Z,100081.56
2022-10-19T23:47:07.407Z,100077.31
2022-10-19T23:49:10.005Z,100085.47
2022-10-19T23:51:15.180Z,100085.94
2022-10-19T23:53:17.767Z,100083.53
2022-10-19T23:55:20.372Z,100073.78
2022-10-19T23:57:22.951Z,100070.91
2022-10-19T23:59:25.605Z,100063.00
